sensor_id;sensor_type;location;lat;lon;timestamp;temperature;humidity
60234;DHT22;49514;43.538;-5.708;2022-10-16T00:01:10;18.70;99.90
60234;DHT22;49514;43.538;-5.708;2022-10-16T00:03:39;18.70;99.90
60234;DHT22;49514;43.538;-5.708;2022-10-16T00:06:07;18.60;99.90
60234;DHT22;49514;43.538;-5.708;2022-10-16T00:08:35;18.60;99.90
60234;DHT22;49514;43.538;-5.708;2022-10-16T00:11:07;18.60;99.90
60234;DHT22;49514;43.538;-5.708;2022-10-16T00:13:35;18.60;99.90
60234;DHT22;49514;43.538;-5.708;2022-10-16T00:16:03;18.60;99.90
60234;DHT22;49514;43.538;-5.708;2022-10-16T00:18:30;18.50;99.90
60234;DHT22;49514;43.538;-5.708;2022-10-16T00:21:02;18.50;99.90
60234;DHT22;49514;43.538;-5.708;2022-10-16T00:23:56;18.50;99.90
60234;DHT22;49514;43.538;-5.708;2022-10-16T00:26:23;18.40;99.90
60234;DHT22;49514;43.538;-5.708;2022-10-16T00:28:51;18.40;99.90
60234;DHT22;49514;43.538;-5.708;2022-10-16T00:31:19;18.40;99.90
60234;DHT22;49514;43.538;-5.708;2022-10-16T00:33:47;18.30;99.90
60234;DHT22;49514;43.538;-5.708;2022-10-16T00:36:16;18.30;99.90
60234;DHT22;49514;43.538;-5.708;2022-10-16T00:38:43;18.30;99.90
60234;DHT22;49514;43.538;-5.708;2022-10-16T00:41:14;18.20;99.90
60234;DHT22;49514;43.538;-5.708;2022-10-16T00:43:52;18.10;99.90
60234;DHT22;49514;43.538;-5.708;2022-10-16T00:46:49;18.10;99.90
60234;DHT22;49514;43.538;-5.708;2022-10-16T00:49:18;18.00;99.90
60234;DHT22;49514;43.538;-5.708;2022-10-16T00:51:48;17.90;99.90
60234;DHT22;49514;43.538;-5.708;2022-10-16T00:54:29;17.80;99.90
60234;DHT22;49514;43.538;-5.708;2022-10-16T00:56:59;17.80;99.90
60234;DHT22;49514;43.538;-5.708;2022-10-16T00:59:32;17.70;99.90
60234;DHT22;49514;43.538;-5.708;2022-10-16T01:01:59;17.70;99.90
60234;DHT22;49514;43.538;-5.708;2022-10-16T01:04:30;17.60;99.90
60234;DHT22;49514;43.538;-5.708;2022-10-16T01:10:07;17.60;99.90
60234;DHT22;49514;43.538;-5.708;2022-10-16T01:21:04;17.30;99.90
60234;DHT22;49514;43.538;-5.708;2022-10-16T01:23:56;17.30;99.90
60234;DHT22;49514;43.538;-5.708;2022-10-16T01:26:30;17.30;99.90
60234;DHT22;49514;43.538;-5.708;2022-10-16T01:29:52;17.20;99.90
60234;DHT22;49514;43.538;-5.708;2022-10-16T01:32:02;17.20;99.90
60234;DHT22;49514;43.538;-5.708;2022-10-16T01:34:35;17.20;99.90
60234;DHT22;49514;43.538;-5.708;2022-10-16T01:37:12;17.20;99.90
60234;DHT22;49514;43.538;-5.708;2022-10-16T01:39:42;17.30;99.90
60234;DHT22;49514;43.538;-5.708;2022-10-16T01:42:15;17.30;99.90
60234;DHT22;49514;43.538;-5.708;2022-10-16T01:44:43;17.30;99.90
60234;DHT22;49514;43.538;-5.708;2022-10-16T01:47:13;17.30;99.90
60234;DHT22;49514;43.538;-5.708;2022-10-16T01:49:41;17.30;99.90
60234;DHT22;49514;43.538;-5.708;2022-10-16T01:52:16;17.30;99.90
60234;DHT22;49514;43.538;-5.708;2022-10-16T01:54:44;17.20;99.90
60234;DHT22;49514;43.538;-5.708;2022-10-16T01:57:12;17.20;99.90
60234;DHT22;49514;43.538;-5.708;2022-10-16T01:59:48;17.20;99.90
60234;DHT22;49514;43.538;-5.708;2022-10-16T02:02:18;17.10;99.90
60234;DHT22;49514;43.538;-5.708;2022-10-16T02:04:50;17.10;99.90
60234;DHT22;49514;43.538;-5.708;2022-10-16T02:07:19;17.10;99.90
60234;DHT22;49514;43.538;-5.708;2022-10-16T02:09:46;17.00;99.90
60234;DHT22;49514;43.538;-5.708;2022-10-16T02:12:14;17.00;99.90
60234;DHT22;49514;43.538;-5.708;2022-10-16T02:14:41;17.00;99.90
60234;DHT22;49514;43.538;-5.708;2022-10-16T02:17:13;17.00;99.90
60234;DHT22;49514;43.538;-5.708;2022-10-16T02:19:42;16.90;99.90
60234;DHT22;49514;43.538;-5.708;2022-10-16T02:25:22;16.90;99.90
60234;DHT22;49514;43.538;-5.708;2022-10-16T02:27:54;16.80;99.90
60234;DHT22;49514;43.538;-5.708;2022-10-16T02:32:55;16.60;99.90
60234;DHT22;49514;43.538;-5.708;2022-10-16T02:35:23;16.60;99.90
60234;DHT22;49514;43.538;-5.708;2022-10-16T02:37:52;16.50;99.90
60234;DHT22;49514;43.538;-5.708;2022-10-16T02:40:19;16.50;99.90
60234;DHT22;49514;43.538;-5.708;2022-10-16T02:42:53;16.40;99.90
60234;DHT22;49514;43.538;-5.708;2022-10-16T02:45:20;16.40;99.90
60234;DHT22;49514;43.538;-5.708;2022-10-16T02:47:47;16.40;99.90
60234;DHT22;49514;43.538;-5.708;2022-10-16T02:50:14;16.40;99.90
60234;DHT22;49514;43.538;-5.708;2022-10-16T02:52:41;16.40;99.90
60234;DHT22;49514;43.538;-5.708;2022-10-16T02:55:08;16.50;99.90
60234;DHT22;49514;43.538;-5.708;2022-10-16T02:57:35;16.50;99.90
60234;DHT22;49514;43.538;-5.708;2022-10-16T03:00:34;16.50;99.90
60234;DHT22;49514;43.538;-5.708;2022-10-16T03:03:02;16.50;99.90
60234;DHT22;49514;43.538;-5.708;2022-10-16T03:05:29;16.50;99.90
60234;DHT22;49514;43.538;-5.708;2022-10-16T03:07:56;16.40;99.90
60234;DHT22;49514;43.538;-5.708;2022-10-16T03:10:23;16.40;99.90
60234;DHT22;49514;43.538;-5.708;2022-10-16T03:12:49;16.40;99.90
60234;DHT22;49514;43.538;-5.708;2022-10-16T03:15:16;16.30;99.90
60234;DHT22;49514;43.538;-5.708;2022-10-16T03:17:43;16.30;99.90
60234;DHT22;49514;43.538;-5.708;2022-10-16T03:20:09;16.20;99.90
60234;DHT22;49514;43.538;-5.708;2022-10-16T03:22:36;16.20;99.90
60234;DHT22;49514;43.538;-5.708;2022-10-16T03:25:03;16.20;99.90
60234;DHT22;49514;43.538;-5.708;2022-10-16T03:27:30;16.10;99.90
60234;DHT22;49514;43.538;-5.708;2022-10-16T03:29:56;16.20;99.90
60234;DHT22;49514;43.538;-5.708;2022-10-16T03:32:23;16.20;99.90
60234;DHT22;49514;43.538;-5.708;2022-10-16T03:34:51;16.10;99.90
60234;DHT22;49514;43.538;-5.708;2022-10-16T03:37:19;16.10;99.90
60234;DHT22;49514;43.538;-5.708;2022-10-16T03:39:46;16.10;99.90
60234;DHT22;49514;43.538;-5.708;2022-10-16T03:42:12;16.00;99.90
60234;DHT22;49514;43.538;-5.708;2022-10-16T03:44:39;16.00;99.90
60234;DHT22;49514;43.538;-5.708;2022-10-16T03:47:06;15.90;99.90
60234;DHT22;49514;43.538;-5.708;2022-10-16T03:49:32;15.90;99.90
60234;DHT22;49514;43.538;-5.708;2022-10-16T03:51:59;15.80;99.90
60234;DHT22;49514;43.538;-5.708;2022-10-16T03:54:26;15.80;99.90
60234;DHT22;49514;43.538;-5.708;2022-10-16T03:56:52;15.80;99.90
60234;DHT22;49514;43.538;-5.708;2022-10-16T03:59:19;15.70;99.90
60234;DHT22;49514;43.538;-5.708;2022-10-16T04:01:46;15.70;99.90
60234;DHT22;49514;43.538;-5.708;2022-10-16T04:04:12;15.70;99.90
60234;DHT22;49514;43.538;-5.708;2022-10-16T04:06:39;15.70;99.90
60234;DHT22;49514;43.538;-5.708;2022-10-16T04:09:06;15.70;99.90
60234;DHT22;49514;43.538;-5.708;2022-10-16T04:11:32;15.70;99.90
60234;DHT22;49514;43.538;-5.708;2022-10-16T04:13:59;15.70;99.90
60234;DHT22;49514;43.538;-5.708;2022-10-16T04:16:26;15.70;99.90
60234;DHT22;49514;43.538;-5.708;2022-10-16T04:18:52;15.60;99.90
60234;DHT22;49514;43.538;-5.708;2022-10-16T04:21:19;15.70;99.90
60234;DHT22;49514;43.538;-5.708;2022-10-16T04:23:45;15.60;99.90
60234;DHT22;49514;43.538;-5.708;2022-10-16T04:26:12;15.60;99.90
60234;DHT22;49514;43.538;-5.708;2022-10-16T04:28:39;15.50;99.90
60234;DHT22;49514;43.538;-5.708;2022-10-16T04:31:06;15.50;99.90
60234;DHT22;49514;43.538;-5.708;2022-10-16T04:33:34;15.50;99.90
60234;DHT22;49514;43.538;-5.708;2022-10-16T04:36:02;15.50;99.90
60234;DHT22;49514;43.538;-5.708;2022-10-16T04:38:29;15.50;99.90
60234;DHT22;49514;43.538;-5.708;2022-10-16T04:40:55;15.50;99.90
60234;DHT22;49514;43.538;-5.708;2022-10-16T04:43:22;15.50;99.90
60234;DHT22;49514;43.538;-5.708;2022-10-16T04:45:49;15.50;99.90
60234;DHT22;49514;43.538;-5.708;2022-10-16T04:48:19;15.50;99.90
60234;DHT22;49514;43.538;-5.708;2022-10-16T04:50:46;15.50;99.90
60234;DHT22;49514;43.538;-5.708;2022-10-16T04:53:13;15.50;99.90
60234;DHT22;49514;43.538;-5.708;2022-10-16T04:55:41;15.50;99.90
60234;DHT22;49514;43.538;-5.708;2022-10-16T04:58:08;15.50;99.90
60234;DHT22;49514;43.538;-5.708;2022-10-16T05:00:35;15.50;99.90
60234;DHT22;49514;43.538;-5.708;2022-10-16T05:03:01;15.50;99.90
60234;DHT22;49514;43.538;-5.708;2022-10-16T05:05:32;15.50;99.90
60234;DHT22;49514;43.538;-5.708;2022-10-16T05:07:59;15.50;99.90
60234;DHT22;49514;43.538;-5.708;2022-10-16T05:10:26;15.50;99.90
60234;DHT22;49514;43.538;-5.708;2022-10-16T05:12:52;15.40;99.90
60234;DHT22;49514;43.538;-5.708;2022-10-16T05:15:19;15.50;99.90
60234;DHT22;49514;43.538;-5.708;2022-10-16T05:17:46;15.50;99.90
60234;DHT22;49514;43.538;-5.708;2022-10-16T05:20:12;15.40;99.90
60234;DHT22;49514;43.538;-5.708;2022-10-16T05:22:39;15.40;99.90
60234;DHT22;49514;43.538;-5.708;2022-10-16T05:25:06;15.40;99.90
60234;DHT22;49514;43.538;-5.708;2022-10-16T05:27:33;15.40;99.90
60234;DHT22;49514;43.538;-5.708;2022-10-16T05:29:59;15.40;99.90
60234;DHT22;49514;43.538;-5.708;2022-10-16T05:32:26;15.30;99.90
60234;DHT22;49514;43.538;-5.708;2022-10-16T05:34:53;15.30;99.90
60234;DHT22;49514;43.538;-5.708;2022-10-16T05:37:19;15.30;99.90
60234;DHT22;49514;43.538;-5.708;2022-10-16T05:39:46;15.30;99.90
60234;DHT22;49514;43.538;-5.708;2022-10-16T05:42:12;15.30;99.90
60234;DHT22;49514;43.538;-5.708;2022-10-16T05:44:39;15.40;99.90
60234;DHT22;49514;43.538;-5.708;2022-10-16T05:47:06;15.40;99.90
60234;DHT22;49514;43.538;-5.708;2022-10-16T05:49:32;15.30;99.90
60234;DHT22;49514;43.538;-5.708;2022-10-16T05:51:59;15.30;99.90
60234;DHT22;49514;43.538;-5.708;2022-10-16T05:54:25;15.40;99.90
60234;DHT22;49514;43.538;-5.708;2022-10-16T05:56:52;15.40;99.90
60234;DHT22;49514;43.538;-5.708;2022-10-16T05:59:19;15.40;99.90
60234;DHT22;49514;43.538;-5.708;2022-10-16T06:01:45;15.40;99.90
60234;DHT22;49514;43.538;-5.708;2022-10-16T06:04:12;15.40;99.90
60234;DHT22;49514;43.538;-5.708;2022-10-16T06:06:38;15.40;99.90
60234;DHT22;49514;43.538;-5.708;2022-10-16T06:09:05;15.40;99.90
60234;DHT22;49514;43.538;-5.708;2022-10-16T06:11:32;15.40;99.90
60234;DHT22;49514;43.538;-5.708;2022-10-16T06:14:01;15.40;99.90
60234;DHT22;49514;43.538;-5.708;2022-10-16T06:16:29;15.40;99.90
60234;DHT22;49514;43.538;-5.708;2022-10-16T06:18:56;15.40;99.90
60234;DHT22;49514;43.538;-5.708;2022-10-16T06:21:24;15.40;99.90
60234;DHT22;49514;43.538;-5.708;2022-10-16T06:23:51;15.40;99.90
60234;DHT22;49514;43.538;-5.708;2022-10-16T06:26:20;15.40;99.90
60234;DHT22;49514;43.538;-5.708;2022-10-16T06:28:48;15.50;99.90
60234;DHT22;49514;43.538;-5.708;2022-10-16T06:31:15;15.40;99.90
60234;DHT22;49514;43.538;-5.708;2022-10-16T06:33:42;15.40;99.90
60234;DHT22;49514;43.538;-5.708;2022-10-16T06:36:11;15.30;99.90
60234;DHT22;49514;43.538;-5.708;2022-10-16T06:38:40;15.30;99.90
60234;DHT22;49514;43.538;-5.708;2022-10-16T06:41:07;15.30;99.90
60234;DHT22;49514;43.538;-5.708;2022-10-16T06:43:35;15.20;99.90
60234;DHT22;49514;43.538;-5.708;2022-10-16T06:46:04;15.20;99.90
60234;DHT22;49514;43.538;-5.708;2022-10-16T06:48:31;15.10;99.90
60234;DHT22;49514;43.538;-5.708;2022-10-16T06:51:19;15.10;99.90
60234;DHT22;49514;43.538;-5.708;2022-10-16T06:53:48;15.10;99.90
60234;DHT22;49514;43.538;-5.708;2022-10-16T06:56:18;15.10;99.90
60234;DHT22;49514;43.538;-5.708;2022-10-16T06:58:46;15.10;99.90
60234;DHT22;49514;43.538;-5.708;2022-10-16T07:01:14;15.00;99.90
60234;DHT22;49514;43.538;-5.708;2022-10-16T07:03:43;15.00;99.90
60234;DHT22;49514;43.538;-5.708;2022-10-16T07:06:12;15.10;99.90
60234;DHT22;49514;43.538;-5.708;2022-10-16T07:08:41;15.10;99.90
60234;DHT22;49514;43.538;-5.708;2022-10-16T07:11:13;15.20;99.90
60234;DHT22;49514;43.538;-5.708;2022-10-16T07:13:41;15.20;99.90
60234;DHT22;49514;43.538;-5.708;2022-10-16T07:16:11;15.20;99.90
60234;DHT22;49514;43.538;-5.708;2022-10-16T07:18:38;15.20;99.90
60234;DHT22;49514;43.538;-5.708;2022-10-16T07:21:11;15.30;99.90
60234;DHT22;49514;43.538;-5.708;2022-10-16T07:23:39;15.30;99.90
60234;DHT22;49514;43.538;-5.708;2022-10-16T07:26:06;15.40;99.90
60234;DHT22;49514;43.538;-5.708;2022-10-16T07:28:34;15.50;99.90
60234;DHT22;49514;43.538;-5.708;2022-10-16T07:31:09;15.50;99.90
60234;DHT22;49514;43.538;-5.708;2022-10-16T07:33:41;15.60;99.90
60234;DHT22;49514;43.538;-5.708;2022-10-16T07:36:09;15.70;99.90
60234;DHT22;49514;43.538;-5.708;2022-10-16T07:38:36;15.70;99.90
60234;DHT22;49514;43.538;-5.708;2022-10-16T07:41:09;15.80;99.90
60234;DHT22;49514;43.538;-5.708;2022-10-16T07:43:37;15.80;99.90
60234;DHT22;49514;43.538;-5.708;2022-10-16T07:46:04;15.90;99.90
60234;DHT22;49514;43.538;-5.708;2022-10-16T07:48:33;15.90;99.90
60234;DHT22;49514;43.538;-5.708;2022-10-16T07:51:01;16.00;99.90
60234;DHT22;49514;43.538;-5.708;2022-10-16T07:53:29;16.10;99.90
60234;DHT22;49514;43.538;-5.708;2022-10-16T07:56:00;16.20;99.90
60234;DHT22;49514;43.538;-5.708;2022-10-16T07:58:28;16.30;99.90
60234;DHT22;49514;43.538;-5.708;2022-10-16T08:00:56;16.30;99.90
60234;DHT22;49514;43.538;-5.708;2022-10-16T08:03:24;16.30;99.90
60234;DHT22;49514;43.538;-5.708;2022-10-16T08:05:52;16.40;99.90
60234;DHT22;49514;43.538;-5.708;2022-10-16T08:08:19;16.40;99.90
60234;DHT22;49514;43.538;-5.708;2022-10-16T08:10:46;16.40;99.90
60234;DHT22;49514;43.538;-5.708;2022-10-16T08:13:12;16.30;99.90
60234;DHT22;49514;43.538;-5.708;2022-10-16T08:15:45;16.40;99.90
60234;DHT22;49514;43.538;-5.708;2022-10-16T08:18:13;16.40;99.90
60234;DHT22;49514;43.538;-5.708;2022-10-16T08:20:41;16.40;99.90
60234;DHT22;49514;43.538;-5.708;2022-10-16T08:23:11;16.50;99.90
60234;DHT22;49514;43.538;-5.708;2022-10-16T08:25:40;16.50;99.90
60234;DHT22;49514;43.538;-5.708;2022-10-16T08:28:09;16.60;99.90
60234;DHT22;49514;43.538;-5.708;2022-10-16T08:30:37;16.70;99.90
60234;DHT22;49514;43.538;-5.708;2022-10-16T08:33:05;16.70;99.90
60234;DHT22;49514;43.538;-5.708;2022-10-16T08:35:33;16.70;99.90
60234;DHT22;49514;43.538;-5.708;2022-10-16T08:38:02;16.80;99.90
60234;DHT22;49514;43.538;-5.708;2022-10-16T08:40:31;16.90;99.90
60234;DHT22;49514;43.538;-5.708;2022-10-16T08:51:34;17.00;99.90
60234;DHT22;49514;43.538;-5.708;2022-10-16T08:54:11;17.10;99.90
60234;DHT22;49514;43.538;-5.708;2022-10-16T08:56:42;17.10;99.90
60234;DHT22;49514;43.538;-5.708;2022-10-16T08:59:10;17.10;99.90
60234;DHT22;49514;43.538;-5.708;2022-10-16T09:01:41;17.30;99.90
60234;DHT22;49514;43.538;-5.708;2022-10-16T09:07:08;17.40;99.90
60234;DHT22;49514;43.538;-5.708;2022-10-16T09:10:02;17.50;99.90
60234;DHT22;49514;43.538;-5.708;2022-10-16T09:15:35;17.80;99.90
60234;DHT22;49514;43.538;-5.708;2022-10-16T09:23:37;18.30;99.90
60234;DHT22;49514;43.538;-5.708;2022-10-16T09:26:05;18.50;99.90
60234;DHT22;49514;43.538;-5.708;2022-10-16T09:28:36;18.60;99.90
60234;DHT22;49514;43.538;-5.708;2022-10-16T09:31:03;18.80;99.90
60234;DHT22;49514;43.538;-5.708;2022-10-16T09:33:35;19.00;99.90
60234;DHT22;49514;43.538;-5.708;2022-10-16T09:36:03;19.20;99.90
60234;DHT22;49514;43.538;-5.708;2022-10-16T09:38:35;19.40;99.90
60234;DHT22;49514;43.538;-5.708;2022-10-16T09:43:59;19.70;99.90
60234;DHT22;49514;43.538;-5.708;2022-10-16T09:46:34;19.90;99.90
60234;DHT22;49514;43.538;-5.708;2022-10-16T09:49:05;20.10;99.90
60234;DHT22;49514;43.538;-5.708;2022-10-16T09:51:34;20.30;99.90
60234;DHT22;49514;43.538;-5.708;2022-10-16T09:56:37;20.60;99.90
60234;DHT22;49514;43.538;-5.708;2022-10-16T10:01:49;20.90;99.90
60234;DHT22;49514;43.538;-5.708;2022-10-16T10:04:22;21.00;99.90
60234;DHT22;49514;43.538;-5.708;2022-10-16T10:09:31;21.50;99.90
60234;DHT22;49514;43.538;-5.708;2022-10-16T10:12:04;21.70;99.90
60234;DHT22;49514;43.538;-5.708;2022-10-16T10:14:35;21.80;99.90
60234;DHT22;49514;43.538;-5.708;2022-10-16T10:25:26;22.10;99.90
60234;DHT22;49514;43.538;-5.708;2022-10-16T10:36:30;22.50;99.90
60234;DHT22;49514;43.538;-5.708;2022-10-16T10:39:15;22.50;99.90
60234;DHT22;49514;43.538;-5.708;2022-10-16T10:53:24;22.30;99.90
60234;DHT22;49514;43.538;-5.708;2022-10-16T10:58:58;22.30;99.90
60234;DHT22;49514;43.538;-5.708;2022-10-16T11:01:45;22.20;99.90
60234;DHT22;49514;43.538;-5.708;2022-10-16T11:04:54;22.20;99.90
60234;DHT22;49514;43.538;-5.708;2022-10-16T11:07:36;22.00;99.90
60234;DHT22;49514;43.538;-5.708;2022-10-16T11:10:20;22.00;99.90
60234;DHT22;49514;43.538;-5.708;2022-10-16T11:12:57;21.90;99.90
60234;DHT22;49514;43.538;-5.708;2022-10-16T11:15:32;21.90;99.90
60234;DHT22;49514;43.538;-5.708;2022-10-16T11:18:19;21.90;99.90
60234;DHT22;49514;43.538;-5.708;2022-10-16T11:20:53;22.10;99.90
60234;DHT22;49514;43.538;-5.708;2022-10-16T11:23:25;22.20;99.90
60234;DHT22;49514;43.538;-5.708;2022-10-16T11:25:56;22.30;99.90
60234;DHT22;49514;43.538;-5.708;2022-10-16T11:31:24;22.50;99.90
60234;DHT22;49514;43.538;-5.708;2022-10-16T11:34:04;22.60;99.90
60234;DHT22;49514;43.538;-5.708;2022-10-16T11:36:41;22.70;99.90
60234;DHT22;49514;43.538;-5.708;2022-10-16T11:42:36;22.80;99.90
60234;DHT22;49514;43.538;-5.708;2022-10-16T11:48:02;23.00;99.90
60234;DHT22;49514;43.538;-5.708;2022-10-16T11:53:45;23.30;99.90
60234;DHT22;49514;43.538;-5.708;2022-10-16T11:59:06;24.10;99.90
60234;DHT22;49514;43.538;-5.708;2022-10-16T12:01:51;23.60;99.90
60234;DHT22;49514;43.538;-5.708;2022-10-16T12:07:06;24.20;99.90
60234;DHT22;49514;43.538;-5.708;2022-10-16T12:09:37;24.40;99.90
60234;DHT22;49514;43.538;-5.708;2022-10-16T12:12:23;24.80;99.90
60234;DHT22;49514;43.538;-5.708;2022-10-16T12:15:15;25.70;99.90
60234;DHT22;49514;43.538;-5.708;2022-10-16T12:17:45;26.90;99.90
60234;DHT22;49514;43.538;-5.708;2022-10-16T12:23:16;28.80;99.90
60234;DHT22;49514;43.538;-5.708;2022-10-16T12:25:36;29.80;99.90
60234;DHT22;49514;43.538;-5.708;2022-10-16T12:28:19;31.00;99.90
60234;DHT22;49514;43.538;-5.708;2022-10-16T12:30:57;32.60;99.90
60234;DHT22;49514;43.538;-5.708;2022-10-16T12:33:40;34.10;99.90
60234;DHT22;49514;43.538;-5.708;2022-10-16T12:36:15;35.40;94.30
60234;DHT22;49514;43.538;-5.708;2022-10-16T12:38:52;36.80;97.10
60234;DHT22;49514;43.538;-5.708;2022-10-16T12:41:27;37.80;91.60
60234;DHT22;49514;43.538;-5.708;2022-10-16T12:43:55;37.00;87.90
60234;DHT22;49514;43.538;-5.708;2022-10-16T12:51:47;32.50;92.60
60234;DHT22;49514;43.538;-5.708;2022-10-16T12:54:14;31.40;92.60
60234;DHT22;49514;43.538;-5.708;2022-10-16T12:57:19;30.30;95.80
60234;DHT22;49514;43.538;-5.708;2022-10-16T13:14:45;28.40;99.90
60234;DHT22;49514;43.538;-5.708;2022-10-16T13:17:36;27.90;99.90
60234;DHT22;49514;43.538;-5.708;2022-10-16T13:28:18;27.40;99.90
60234;DHT22;49514;43.538;-5.708;2022-10-16T13:30:54;27.40;99.90
60234;DHT22;49514;43.538;-5.708;2022-10-16T13:33:43;27.50;99.90
60234;DHT22;49514;43.538;-5.708;2022-10-16T13:36:29;27.50;99.90
60234;DHT22;49514;43.538;-5.708;2022-10-16T13:39:14;27.70;99.90
60234;DHT22;49514;43.538;-5.708;2022-10-16T13:41:41;28.00;99.90
60234;DHT22;49514;43.538;-5.708;2022-10-16T13:44:18;28.10;99.90
60234;DHT22;49514;43.538;-5.708;2022-10-16T13:46:45;28.00;99.90
60234;DHT22;49514;43.538;-5.708;2022-10-16T13:49:14;28.10;99.80
60234;DHT22;49514;43.538;-5.708;2022-10-16T13:51:41;28.10;99.80
60234;DHT22;49514;43.538;-5.708;2022-10-16T13:54:19;27.60;99.90
60234;DHT22;49514;43.538;-5.708;2022-10-16T13:56:46;27.20;99.90
60234;DHT22;49514;43.538;-5.708;2022-10-16T13:59:32;26.90;99.90
60234;DHT22;49514;43.538;-5.708;2022-10-16T14:02:05;26.70;99.90
60234;DHT22;49514;43.538;-5.708;2022-10-16T14:04:38;26.50;99.90
60234;DHT22;49514;43.538;-5.708;2022-10-16T14:07:14;26.20;99.90
60234;DHT22;49514;43.538;-5.708;2022-10-16T14:09:41;26.00;99.90
60234;DHT22;49514;43.538;-5.708;2022-10-16T14:12:11;26.10;99.90
60234;DHT22;49514;43.538;-5.708;2022-10-16T14:14:43;26.10;99.90
60234;DHT22;49514;43.538;-5.708;2022-10-16T14:17:20;26.00;99.90
60234;DHT22;49514;43.538;-5.708;2022-10-16T14:19:49;25.90;99.90
60234;DHT22;49514;43.538;-5.708;2022-10-16T14:24:50;25.50;99.90
60234;DHT22;49514;43.538;-5.708;2022-10-16T14:27:33;25.40;99.90
60234;DHT22;49514;43.538;-5.708;2022-10-16T14:30:24;25.30;99.90
60234;DHT22;49514;43.538;-5.708;2022-10-16T14:32:59;25.00;99.90
60234;DHT22;49514;43.538;-5.708;2022-10-16T14:35:37;24.90;99.90
60234;DHT22;49514;43.538;-5.708;2022-10-16T14:38:06;24.70;99.90
60234;DHT22;49514;43.538;-5.708;2022-10-16T14:40:47;24.50;99.90
60234;DHT22;49514;43.538;-5.708;2022-10-16T14:43:39;24.30;99.90
60234;DHT22;49514;43.538;-5.708;2022-10-16T14:51:15;24.00;99.90
60234;DHT22;49514;43.538;-5.708;2022-10-16T14:53:43;23.80;99.90
60234;DHT22;49514;43.538;-5.708;2022-10-16T14:56:54;23.80;99.90
60234;DHT22;49514;43.538;-5.708;2022-10-16T14:59:30;23.80;99.90
60234;DHT22;49514;43.538;-5.708;2022-10-16T15:01:58;24.00;99.90
60234;DHT22;49514;43.538;-5.708;2022-10-16T15:04:25;24.30;99.90
60234;DHT22;49514;43.538;-5.708;2022-10-16T15:06:52;24.80;99.90
60234;DHT22;49514;43.538;-5.708;2022-10-16T15:09:19;25.60;99.90
60234;DHT22;49514;43.538;-5.708;2022-10-16T15:11:47;27.50;99.90
60234;DHT22;49514;43.538;-5.708;2022-10-16T15:14:14;28.90;99.90
60234;DHT22;49514;43.538;-5.708;2022-10-16T15:16:41;29.10;99.90
60234;DHT22;49514;43.538;-5.708;2022-10-16T15:19:07;29.20;99.90
60234;DHT22;49514;43.538;-5.708;2022-10-16T15:21:34;29.00;99.90
60234;DHT22;49514;43.538;-5.708;2022-10-16T15:24:01;29.10;99.90
60234;DHT22;49514;43.538;-5.708;2022-10-16T15:31:24;31.90;99.90
60234;DHT22;49514;43.538;-5.708;2022-10-16T15:33:51;32.80;97.70
60234;DHT22;49514;43.538;-5.708;2022-10-16T15:36:27;33.50;93.90
60234;DHT22;49514;43.538;-5.708;2022-10-16T15:38:54;34.50;95.30
60234;DHT22;49514;43.538;-5.708;2022-10-16T15:41:21;35.30;93.60
60234;DHT22;49514;43.538;-5.708;2022-10-16T15:43:49;36.10;92.10
60234;DHT22;49514;43.538;-5.708;2022-10-16T15:46:20;36.60;90.00
60234;DHT22;49514;43.538;-5.708;2022-10-16T15:48:47;36.50;81.40
60234;DHT22;49514;43.538;-5.708;2022-10-16T15:51:14;36.00;80.50
60234;DHT22;49514;43.538;-5.708;2022-10-16T15:53:41;35.20;82.00
60234;DHT22;49514;43.538;-5.708;2022-10-16T15:56:08;34.70;81.50
60234;DHT22;49514;43.538;-5.708;2022-10-16T15:58:35;33.80;82.90
60234;DHT22;49514;43.538;-5.708;2022-10-16T16:01:01;32.80;84.50
60234;DHT22;49514;43.538;-5.708;2022-10-16T16:03:30;31.90;85.40
60234;DHT22;49514;43.538;-5.708;2022-10-16T16:05:56;31.00;87.40
60234;DHT22;49514;43.538;-5.708;2022-10-16T16:08:23;30.40;90.00
60234;DHT22;49514;43.538;-5.708;2022-10-16T16:10:59;29.60;90.50
60234;DHT22;49514;43.538;-5.708;2022-10-16T16:13:27;28.70;92.00
60234;DHT22;49514;43.538;-5.708;2022-10-16T16:15:54;28.20;93.30
60234;DHT22;49514;43.538;-5.708;2022-10-16T16:18:20;27.80;93.90
60234;DHT22;49514;43.538;-5.708;2022-10-16T16:28:08;27.10;97.80
60234;DHT22;49514;43.538;-5.708;2022-10-16T16:30:36;26.70;95.50
60234;DHT22;49514;43.538;-5.708;2022-10-16T16:33:03;26.60;96.10
60234;DHT22;49514;43.538;-5.708;2022-10-16T16:35:31;26.50;96.00
60234;DHT22;49514;43.538;-5.708;2022-10-16T16:37:57;26.50;95.60
60234;DHT22;49514;43.538;-5.708;2022-10-16T16:40:24;26.40;95.90
60234;DHT22;49514;43.538;-5.708;2022-10-16T16:42:51;26.30;96.00
60234;DHT22;49514;43.538;-5.708;2022-10-16T16:45:18;26.10;96.20
60234;DHT22;49514;43.538;-5.708;2022-10-16T16:47:45;25.90;96.10
60234;DHT22;49514;43.538;-5.708;2022-10-16T16:57:33;25.90;98.40
60234;DHT22;49514;43.538;-5.708;2022-10-16T17:00:00;25.90;98.50
60234;DHT22;49514;43.538;-5.708;2022-10-16T17:04:54;25.50;99.40
60234;DHT22;49514;43.538;-5.708;2022-10-16T17:07:23;25.30;99.90
60234;DHT22;49514;43.538;-5.708;2022-10-16T17:09:52;25.10;99.90
60234;DHT22;49514;43.538;-5.708;2022-10-16T17:12:18;24.90;99.90
60234;DHT22;49514;43.538;-5.708;2022-10-16T17:14:45;24.70;99.90
60234;DHT22;49514;43.538;-5.708;2022-10-16T17:17:12;24.50;99.90
60234;DHT22;49514;43.538;-5.708;2022-10-16T17:19:40;24.30;99.90
60234;DHT22;49514;43.538;-5.708;2022-10-16T17:24:33;24.00;99.90
60234;DHT22;49514;43.538;-5.708;2022-10-16T17:27:00;23.80;99.90
60234;DHT22;49514;43.538;-5.708;2022-10-16T17:29:27;23.60;99.90
60234;DHT22;49514;43.538;-5.708;2022-10-16T17:31:55;23.50;99.90
60234;DHT22;49514;43.538;-5.708;2022-10-16T17:34:22;23.20;99.90
60234;DHT22;49514;43.538;-5.708;2022-10-16T17:36:49;23.00;99.90
60234;DHT22;49514;43.538;-5.708;2022-10-16T17:39:16;22.90;99.90
60234;DHT22;49514;43.538;-5.708;2022-10-16T17:41:45;22.70;99.90
60234;DHT22;49514;43.538;-5.708;2022-10-16T17:44:13;22.60;99.90
60234;DHT22;49514;43.538;-5.708;2022-10-16T17:49:17;22.30;99.90
60234;DHT22;49514;43.538;-5.708;2022-10-16T17:51:45;22.10;99.90
60234;DHT22;49514;43.538;-5.708;2022-10-16T17:56:42;21.80;99.90
60234;DHT22;49514;43.538;-5.708;2022-10-16T17:59:10;21.60;99.90
60234;DHT22;49514;43.538;-5.708;2022-10-16T18:01:38;21.50;99.90
60234;DHT22;49514;43.538;-5.708;2022-10-16T18:04:10;21.40;99.90
60234;DHT22;49514;43.538;-5.708;2022-10-16T18:09:07;21.20;99.90
60234;DHT22;49514;43.538;-5.708;2022-10-16T18:11:34;21.10;99.90
60234;DHT22;49514;43.538;-5.708;2022-10-16T18:14:02;21.00;99.90
60234;DHT22;49514;43.538;-5.708;2022-10-16T18:16:30;20.90;99.90
60234;DHT22;49514;43.538;-5.708;2022-10-16T18:18:57;20.80;99.90
60234;DHT22;49514;43.538;-5.708;2022-10-16T18:21:26;20.80;99.90
60234;DHT22;49514;43.538;-5.708;2022-10-16T18:23:53;20.70;99.90